createdAt,value
2022-11-26T00:01:47.317Z,28.92
2022-11-26T00:04:16.932Z,30.60
2022-11-26T00:06:46.740Z,37.90
2022-11-26T00:09:19.639Z,34.57
2022-11-26T00:11:49.085Z,31.25
2022-11-26T00:14:19.197Z,28.07
2022-11-26T00:16:49.312Z,28.23
2022-11-26T00:19:19.047Z,35.17
2022-11-26T00:21:49.665Z,28.43
2022-11-26T00:24:29.954Z,32.63
2022-11-26T00:27:01.321Z,32.07
2022-11-26T00:29:31.139Z,34.57
2022-11-26T00:32:01.017Z,29.90
2022-11-26T00:34:30.803Z,24.47
2022-11-26T00:37:00.569Z,21.67
2022-11-26T00:39:30.761Z,31.30
2022-11-26T00:42:02.239Z,22.90
2022-11-26T00:44:32.729Z,28.07
2022-11-26T00:47:02.491Z,38.20
2022-11-26T00:49:32.545Z,31.15
2022-11-26T00:52:02.526Z,32.57
2022-11-26T00:54:32.829Z,26.93
2022-11-26T00:57:02.577Z,28.50
2022-11-26T00:59:32.642Z,27.22
2022-11-26T01:02:02.572Z,30.97
2022-11-26T01:04:33.296Z,29.65
2022-11-26T01:07:03.133Z,27.13
2022-11-26T01:09:33.049Z,32.83
2022-11-26T01:12:02.770Z,21.63
2022-11-26T01:14:32.599Z,22.67
2022-11-26T01:17:02.731Z,26.77
2022-11-26T01:19:32.529Z,35.37
2022-11-26T01:22:02.349Z,19.30
2022-11-26T01:24:32.169Z,23.87
2022-11-26T01:27:01.904Z,35.33
2022-11-26T01:29:31.683Z,55.03
2022-11-26T01:32:01.574Z,31.13
2022-11-26T01:34:31.842Z,31.82
2022-11-26T01:37:01.661Z,25.50
2022-11-26T01:39:31.183Z,30.90
2022-11-26T01:42:23.242Z,42.50
2022-11-26T01:44:53.239Z,27.23
2022-11-26T01:47:28.740Z,27.10
2022-11-26T01:50:35.850Z,29.40
2022-11-26T01:55:41.648Z,30.15
2022-11-26T01:58:14.988Z,24.10
2022-11-26T02:00:45.843Z,28.45
2022-11-26T02:03:16.310Z,32.20
2022-11-26T02:05:49.167Z,39.97
2022-11-26T02:08:19.774Z,28.90
2022-11-26T02:10:51.142Z,31.60
2022-11-26T02:13:21.760Z,31.80
2022-11-26T02:16:03.181Z,27.90
2022-11-26T02:18:36.175Z,28.60
2022-11-26T02:21:09.025Z,28.70
2022-11-26T02:24:08.484Z,28.63
2022-11-26T02:27:06.855Z,29.12
2022-11-26T02:29:51.302Z,24.90
2022-11-26T02:32:44.999Z,34.25
2022-11-26T02:35:23.685Z,24.72
2022-11-26T02:38:02.364Z,30.30
2022-11-26T02:40:31.904Z,28.23
2022-11-26T02:43:01.882Z,29.50
2022-11-26T02:45:37.604Z,25.57
2022-11-26T02:48:12.825Z,46.28
2022-11-26T02:54:08.714Z,39.90
2022-11-26T02:56:40.723Z,41.33
2022-11-26T02:59:11.872Z,43.93
2022-11-26T03:01:47.653Z,36.13
2022-11-26T03:04:20.218Z,32.70
2022-11-26T03:06:50.918Z,42.57
2022-11-26T03:09:23.687Z,32.83
2022-11-26T03:11:53.897Z,31.37
2022-11-26T03:14:23.327Z,31.02
2022-11-26T03:16:53.125Z,33.07
2022-11-26T03:19:22.966Z,36.87
2022-11-26T03:21:52.713Z,37.50
2022-11-26T03:24:22.591Z,37.58
2022-11-26T03:26:52.632Z,40.45
2022-11-26T03:29:22.685Z,37.85
2022-11-26T03:31:52.635Z,32.53
2022-11-26T03:34:22.206Z,38.17
2022-11-26T03:36:52.558Z,28.50
2022-11-26T03:39:22.621Z,31.12
2022-11-26T03:41:52.404Z,30.87
2022-11-26T03:44:22.216Z,38.50
2022-11-26T03:46:51.947Z,33.47
2022-11-26T03:49:21.831Z,31.33
2022-11-26T03:51:51.954Z,26.82
2022-11-26T03:54:21.725Z,32.17
2022-11-26T03:56:51.982Z,36.15
2022-11-26T03:59:22.025Z,37.90
2022-11-26T04:01:52.123Z,43.78
2022-11-26T04:04:21.951Z,38.10
2022-11-26T04:06:51.691Z,29.60
2022-11-26T04:09:21.782Z,32.20
2022-11-26T04:11:51.877Z,29.80
2022-11-26T04:14:21.485Z,39.00
2022-11-26T04:16:51.456Z,29.50
2022-11-26T04:19:21.274Z,35.20
2022-11-26T04:21:51.073Z,35.50
2022-11-26T04:24:20.853Z,32.53
2022-11-26T04:26:50.665Z,26.87
2022-11-26T04:29:20.155Z,29.50
2022-11-26T04:31:49.944Z,30.33
2022-11-26T04:34:19.663Z,32.05
2022-11-26T04:36:49.471Z,37.63
2022-11-26T04:39:19.233Z,33.53
2022-11-26T04:41:49.846Z,35.17
2022-11-26T04:44:19.617Z,34.92
2022-11-26T04:46:49.666Z,34.05
2022-11-26T04:49:19.164Z,30.20
2022-11-26T04:51:48.954Z,31.10
2022-11-26T04:54:18.692Z,36.15
2022-11-26T04:56:49.773Z,35.17
2022-11-26T04:59:19.505Z,32.57
2022-11-26T05:01:49.248Z,39.90
2022-11-26T05:04:20.165Z,29.82
2022-11-26T05:06:49.916Z,36.67
2022-11-26T05:09:19.657Z,40.47
2022-11-26T05:11:49.511Z,32.50
2022-11-26T05:14:19.276Z,31.70
2022-11-26T05:16:49.104Z,35.63
2022-11-26T05:19:18.974Z,35.80
2022-11-26T05:21:48.736Z,33.07
2022-11-26T05:24:18.187Z,38.17
2022-11-26T05:26:52.364Z,39.93
2022-11-26T05:29:19.754Z,38.90
2022-11-26T05:31:49.642Z,38.07
2022-11-26T05:34:19.654Z,44.47
2022-11-26T05:36:49.421Z,34.67
2022-11-26T05:39:19.182Z,30.33
2022-11-26T05:41:49.202Z,34.23
2022-11-26T05:44:18.932Z,35.48
2022-11-26T05:46:48.709Z,38.90
2022-11-26T05:49:18.813Z,37.28
2022-11-26T05:51:48.794Z,32.90
2022-11-26T05:54:18.730Z,33.47
2022-11-26T05:56:48.214Z,44.60
2022-11-26T05:59:17.965Z,35.60
2022-11-26T06:01:48.045Z,30.37
2022-11-26T06:04:17.657Z,31.00
2022-11-26T06:06:47.855Z,33.10
2022-11-26T06:09:17.637Z,29.50
2022-11-26T06:11:47.477Z,36.40
2022-11-26T06:14:17.886Z,31.23
2022-11-26T06:16:47.856Z,35.60
2022-11-26T06:19:17.776Z,37.33
2022-11-26T06:21:47.520Z,35.73
2022-11-26T06:24:17.221Z,36.70
2022-11-26T06:26:46.970Z,38.53
2022-11-26T06:29:16.704Z,30.77
2022-11-26T06:31:46.911Z,40.75
2022-11-26T06:34:17.667Z,36.95
2022-11-26T06:36:47.477Z,44.03
2022-11-26T06:39:17.282Z,27.93
2022-11-26T06:41:47.005Z,33.17
2022-11-26T06:44:16.838Z,42.35
2022-11-26T06:46:46.356Z,38.75
2022-11-26T06:49:16.191Z,36.93
2022-11-26T06:51:45.930Z,36.20
2022-11-26T06:54:15.758Z,38.23
2022-11-26T06:56:45.571Z,37.33
2022-11-26T06:59:15.635Z,45.45
2022-11-26T07:01:45.492Z,35.17
2022-11-26T07:04:15.504Z,30.03
2022-11-26T07:06:46.592Z,44.33
2022-11-26T07:09:16.629Z,40.30
2022-11-26T07:11:46.408Z,33.47
2022-11-26T07:14:16.367Z,38.93
2022-11-26T07:16:46.091Z,35.83
2022-11-26T07:19:16.321Z,41.17
2022-11-26T07:21:46.009Z,38.47
2022-11-26T07:24:15.993Z,40.38
2022-11-26T07:26:45.783Z,34.30
2022-11-26T07:29:16.102Z,39.70
2022-11-26T07:31:45.921Z,48.03
2022-11-26T07:34:15.663Z,49.48
2022-11-26T07:36:45.407Z,39.50
2022-11-26T07:39:15.177Z,41.47
2022-11-26T07:41:45.335Z,44.95
2022-11-26T07:44:15.933Z,50.80
2022-11-26T07:46:45.635Z,63.60
2022-11-26T07:49:15.074Z,49.80
2022-11-26T07:51:44.894Z,40.00
2022-11-26T07:54:14.638Z,46.90
2022-11-26T07:56:44.168Z,41.25
2022-11-26T07:59:13.918Z,49.20
2022-11-26T08:01:43.723Z,47.30
2022-11-26T08:04:13.530Z,53.40
2022-11-26T08:06:43.583Z,54.00
2022-11-26T08:09:13.033Z,43.50
2022-11-26T08:11:43.955Z,43.40
2022-11-26T08:14:14.693Z,59.63
2022-11-26T08:16:44.367Z,50.35
2022-11-26T08:19:14.911Z,45.77
2022-11-26T08:21:44.967Z,60.23
2022-11-26T08:24:17.116Z,60.23
2022-11-26T08:26:47.426Z,52.27
2022-11-26T08:29:17.504Z,50.05
2022-11-26T08:31:48.813Z,49.73
2022-11-26T08:34:19.425Z,51.63
2022-11-26T08:36:49.479Z,53.35
2022-11-26T08:39:19.891Z,50.43
2022-11-26T08:41:52.366Z,58.17
2022-11-26T08:44:21.548Z,43.67
2022-11-26T08:46:51.502Z,45.43
2022-11-26T08:49:21.545Z,43.13
2022-11-26T08:51:51.321Z,49.30
2022-11-26T08:54:21.010Z,40.60
2022-11-26T08:56:50.790Z,50.80
2022-11-26T08:59:22.272Z,53.53
2022-11-26T09:01:52.424Z,41.80
2022-11-26T09:04:22.223Z,49.13
2022-11-26T09:06:52.041Z,45.77
2022-11-26T09:09:21.835Z,49.83
2022-11-26T09:11:59.912Z,37.95
2022-11-26T09:14:31.975Z,49.27
2022-11-26T09:17:02.504Z,48.37
2022-11-26T09:19:32.385Z,47.73
2022-11-26T09:22:02.433Z,36.50
2022-11-26T09:24:32.209Z,45.50
2022-11-26T09:27:07.472Z,38.03
2022-11-26T09:29:33.179Z,39.40
2022-11-26T09:34:34.618Z,45.03
2022-11-26T09:37:04.661Z,38.45
2022-11-26T09:39:34.524Z,45.30
2022-11-26T09:42:30.531Z,40.90
2022-11-26T09:45:14.987Z,41.30
2022-11-26T09:47:47.894Z,43.30
2022-11-26T09:50:29.506Z,41.27
2022-11-26T09:53:23.530Z,40.80
2022-11-26T09:55:56.132Z,38.03
2022-11-26T09:58:31.394Z,44.73
2022-11-26T10:01:03.210Z,40.17
2022-11-26T10:03:35.185Z,37.93
2022-11-26T10:06:12.352Z,33.90
2022-11-26T10:09:11.988Z,39.87
2022-11-26T10:11:59.812Z,29.17
2022-11-26T10:14:48.912Z,43.10
2022-11-26T10:17:24.479Z,35.10
2022-11-26T10:20:03.029Z,43.33
2022-11-26T10:22:38.832Z,33.97
2022-11-26T10:27:39.591Z,48.13
2022-11-26T10:30:20.934Z,35.10
2022-11-26T10:32:52.412Z,44.80
2022-11-26T10:35:24.796Z,41.13
2022-11-26T10:37:57.199Z,30.23
2022-11-26T10:40:29.940Z,35.40
2022-11-26T10:43:12.474Z,40.23
2022-11-26T10:45:53.926Z,35.47
2022-11-26T10:48:29.056Z,26.30
2022-11-26T10:51:23.702Z,35.60
2022-11-26T10:53:59.648Z,30.00
2022-11-26T10:56:44.721Z,40.37
2022-11-26T10:59:29.203Z,29.03
2022-11-26T11:02:07.540Z,40.83
2022-11-26T11:04:40.927Z,28.10
2022-11-26T11:07:16.482Z,35.73
2022-11-26T11:09:46.836Z,32.53
2022-11-26T11:12:24.582Z,38.53
2022-11-26T11:14:55.011Z,29.42
2022-11-26T11:17:33.947Z,36.33
2022-11-26T11:20:19.668Z,35.47
2022-11-26T11:22:54.971Z,31.20
2022-11-26T11:25:28.206Z,36.63
2022-11-26T11:28:08.963Z,40.67
2022-11-26T11:30:37.645Z,28.47
2022-11-26T11:33:13.891Z,34.78
2022-11-26T11:35:43.431Z,32.63
2022-11-26T11:38:25.017Z,22.10
2022-11-26T11:40:55.211Z,30.37
2022-11-26T11:43:26.868Z,30.47
2022-11-26T11:46:14.469Z,28.40
2022-11-26T11:48:56.192Z,33.63
2022-11-26T11:51:34.412Z,28.47
2022-11-26T11:54:23.149Z,26.93
2022-11-26T11:56:58.475Z,36.63
2022-11-26T11:59:41.387Z,27.63
2022-11-26T12:02:20.537Z,28.27
2022-11-26T12:04:56.442Z,31.50
2022-11-26T12:07:32.385Z,23.95
2022-11-26T12:10:08.071Z,30.05
2022-11-26T12:12:45.003Z,28.63
2022-11-26T12:15:40.493Z,31.70
2022-11-26T12:18:31.839Z,34.27
2022-11-26T12:21:08.917Z,22.23
2022-11-26T12:24:07.126Z,22.70
2022-11-26T12:26:46.930Z,23.50
2022-11-26T12:29:45.003Z,22.60
2022-11-26T12:32:18.765Z,24.70
2022-11-26T12:34:57.214Z,21.95
2022-11-26T12:37:30.009Z,29.47
2022-11-26T12:40:17.700Z,26.63
2022-11-26T12:42:59.378Z,28.43
2022-11-26T12:45:51.476Z,30.80
2022-11-26T12:48:27.022Z,20.43
2022-11-26T12:51:14.391Z,18.17
2022-11-26T12:54:06.683Z,24.87
2022-11-26T12:56:47.916Z,26.80
2022-11-26T12:59:26.426Z,28.25
2022-11-26T13:01:57.324Z,24.73
2022-11-26T13:04:37.715Z,28.00
2022-11-26T13:07:25.846Z,26.97
2022-11-26T13:10:18.384Z,21.62
2022-11-26T13:13:02.465Z,25.20
2022-11-26T13:15:37.655Z,24.65
2022-11-26T13:18:21.519Z,23.88
2022-11-26T13:21:16.549Z,29.13
2022-11-26T13:24:21.147Z,23.63
2022-11-26T13:26:59.993Z,23.70
2022-11-26T13:29:33.106Z,27.10
2022-11-26T13:32:13.230Z,22.83
2022-11-26T13:34:46.157Z,20.20
2022-11-26T13:37:34.021Z,26.20
2022-11-26T13:40:26.792Z,22.67
2022-11-26T13:43:05.231Z,19.87
2022-11-26T13:45:46.720Z,18.77
2022-11-26T13:48:22.059Z,28.70
2022-11-26T13:51:03.169Z,18.73
2022-11-26T13:53:38.750Z,25.53
2022-11-26T13:56:11.718Z,24.90
2022-11-26T13:58:50.383Z,26.77
2022-11-26T14:01:37.005Z,18.43
2022-11-26T14:04:13.742Z,22.80
2022-11-26T14:07:08.718Z,17.10
2022-11-26T14:09:47.429Z,17.87
2022-11-26T14:12:18.591Z,17.97
2022-11-26T14:14:50.435Z,20.88
2022-11-26T14:17:33.912Z,18.97
2022-11-26T14:20:00.743Z,22.73
2022-11-26T14:22:33.716Z,29.57
2022-11-26T14:25:09.343Z,18.62
2022-11-26T14:27:42.475Z,21.87
2022-11-26T14:30:20.350Z,26.77
2022-11-26T14:33:08.297Z,25.73
2022-11-26T14:35:40.530Z,16.37
2022-11-26T14:38:30.530Z,20.52
2022-11-26T14:41:01.835Z,18.70
2022-11-26T14:43:31.642Z,16.07
2022-11-26T14:46:15.945Z,16.00
2022-11-26T14:48:50.917Z,17.67
2022-11-26T14:51:26.250Z,17.20
2022-11-26T14:53:57.079Z,27.53
2022-11-26T14:56:27.191Z,16.77
2022-11-26T14:59:00.002Z,21.00
2022-11-26T15:01:31.837Z,19.57
2022-11-26T15:04:04.596Z,20.82
2022-11-26T15:06:38.811Z,17.63
2022-11-26T15:09:21.662Z,18.93
2022-11-26T15:11:54.525Z,20.90
2022-11-26T15:14:39.626Z,12.13
2022-11-26T15:17:18.422Z,14.37
2022-11-26T15:19:50.439Z,22.37
2022-11-26T15:22:42.109Z,23.03
2022-11-26T15:25:23.534Z,18.48
2022-11-26T15:28:05.038Z,19.10
2022-11-26T15:30:38.974Z,28.65
2022-11-26T15:33:14.800Z,23.37
2022-11-26T15:35:44.437Z,30.43
2022-11-26T15:38:17.293Z,21.05
2022-11-26T15:40:55.535Z,27.23
2022-11-26T15:43:31.313Z,29.90
2022-11-26T15:46:09.283Z,21.85
2022-11-26T15:48:52.774Z,27.77
2022-11-26T15:51:28.420Z,29.35
2022-11-26T15:53:58.089Z,26.93
2022-11-26T15:56:33.786Z,28.20
2022-11-26T15:59:07.072Z,25.23
2022-11-26T16:01:38.224Z,24.47
2022-11-26T16:04:12.425Z,25.13
2022-11-26T16:06:42.610Z,28.00
2022-11-26T16:09:18.138Z,25.15
2022-11-26T16:12:00.124Z,26.52
2022-11-26T16:14:38.582Z,24.47
2022-11-26T16:17:17.142Z,41.92
2022-11-26T16:19:55.896Z,48.70
2022-11-26T16:22:28.943Z,33.00
2022-11-26T16:25:07.816Z,27.63
2022-11-26T16:27:37.906Z,24.23
2022-11-26T16:30:17.823Z,21.20
2022-11-26T16:32:47.577Z,29.70
2022-11-26T16:35:44.125Z,31.37
2022-11-26T16:37:48.530Z,22.80
2022-11-26T16:40:19.250Z,24.53
2022-11-26T16:42:49.537Z,26.00
2022-11-26T16:45:20.643Z,33.00
2022-11-26T16:47:56.072Z,22.07
2022-11-26T16:50:27.742Z,23.00
2022-11-26T16:52:57.632Z,25.27
2022-11-26T16:55:28.029Z,25.40
2022-11-26T16:58:01.312Z,21.70
2022-11-26T17:00:30.720Z,26.52
2022-11-26T17:03:00.941Z,23.52
2022-11-26T17:05:30.782Z,27.40
2022-11-26T17:08:02.358Z,20.87
2022-11-26T17:10:32.150Z,27.17
2022-11-26T17:13:01.842Z,20.00
2022-11-26T17:15:31.324Z,25.95
2022-11-26T17:18:06.936Z,27.23
2022-11-26T17:20:36.459Z,20.80
2022-11-26T17:23:06.464Z,20.80
2022-11-26T17:25:36.245Z,34.03
2022-11-26T17:28:13.424Z,17.57
2022-11-26T17:30:45.000Z,29.07
2022-11-26T17:33:14.743Z,22.87
2022-11-26T17:35:44.538Z,18.43
2022-11-26T17:38:17.183Z,17.85
2022-11-26T17:40:47.641Z,27.58
2022-11-26T17:43:17.444Z,13.30
2022-11-26T17:45:47.542Z,34.63
2022-11-26T17:48:16.993Z,22.37
2022-11-26T17:50:46.808Z,20.10
2022-11-26T17:53:16.550Z,20.10
2022-11-26T17:55:46.352Z,15.43
2022-11-26T17:58:16.073Z,19.67
2022-11-26T18:00:45.845Z,19.17
2022-11-26T18:03:15.666Z,26.30
2022-11-26T18:05:45.741Z,12.90
2022-11-26T18:08:15.531Z,21.95
2022-11-26T18:10:45.232Z,23.27
2022-11-26T18:13:14.968Z,24.20
2022-11-26T18:15:44.981Z,23.10
2022-11-26T18:18:14.778Z,23.13
2022-11-26T18:20:44.685Z,15.23
2022-11-26T18:23:14.155Z,22.95
2022-11-26T18:25:45.597Z,17.70
2022-11-26T18:28:18.703Z,27.47
2022-11-26T18:30:48.509Z,25.07
2022-11-26T18:33:18.231Z,23.03
2022-11-26T18:35:49.465Z,20.53
2022-11-26T18:38:19.174Z,20.60
2022-11-26T18:40:50.427Z,13.43
2022-11-26T18:43:20.170Z,22.87
2022-11-26T18:45:49.928Z,19.57
2022-11-26T18:48:19.652Z,21.68
2022-11-26T18:50:58.378Z,23.03
2022-11-26T18:53:28.455Z,27.17
2022-11-26T18:55:59.015Z,24.40
2022-11-26T18:58:29.131Z,26.97
2022-11-26T19:00:59.288Z,19.32
2022-11-26T19:03:29.394Z,20.60
2022-11-26T19:05:59.210Z,15.87
2022-11-26T19:08:28.726Z,16.95
2022-11-26T19:10:58.538Z,22.73
2022-11-26T19:13:28.265Z,22.77
2022-11-26T19:15:58.616Z,32.45
2022-11-26T19:18:28.322Z,20.77
2022-11-26T19:20:58.220Z,22.03
2022-11-26T19:23:28.546Z,24.33
2022-11-26T19:25:58.473Z,23.17
2022-11-26T19:28:28.779Z,18.75
2022-11-26T19:31:01.249Z,21.87
2022-11-26T19:33:31.266Z,21.17
2022-11-26T19:36:06.106Z,22.63
2022-11-26T19:38:36.384Z,23.47
2022-11-26T19:41:07.032Z,16.53
2022-11-26T19:43:40.153Z,25.43
2022-11-26T19:46:14.953Z,21.55
2022-11-26T19:48:46.538Z,32.65
2022-11-26T19:51:17.911Z,22.10
2022-11-26T19:53:52.546Z,24.33
2022-11-26T19:56:24.975Z,19.83
2022-11-26T19:58:56.790Z,31.13
2022-11-26T20:01:29.458Z,26.70
2022-11-26T20:04:01.282Z,24.37
2022-11-26T20:06:32.641Z,22.20
2022-11-26T20:09:04.072Z,20.53
2022-11-26T20:11:36.095Z,29.10
2022-11-26T20:14:11.908Z,32.40
2022-11-26T20:16:43.546Z,32.93
2022-11-26T20:19:14.041Z,21.15
2022-11-26T20:21:43.790Z,18.97
2022-11-26T20:24:18.291Z,26.50
2022-11-26T20:26:49.676Z,23.47
2022-11-26T20:29:19.968Z,24.30
2022-11-26T20:31:51.762Z,26.50
2022-11-26T20:34:24.363Z,31.93
2022-11-26T20:36:54.180Z,23.20
2022-11-26T20:39:24.665Z,25.73
2022-11-26T20:41:54.431Z,27.07
2022-11-26T20:44:25.900Z,25.57
2022-11-26T20:46:56.950Z,24.23
2022-11-26T20:49:32.216Z,27.25
2022-11-26T20:51:58.416Z,18.20
2022-11-26T20:54:28.164Z,21.33
2022-11-26T20:56:58.108Z,22.17
2022-11-26T20:59:27.584Z,27.85
2022-11-26T21:01:57.481Z,19.30
2022-11-26T21:04:27.090Z,16.77
2022-11-26T21:06:56.856Z,26.97
2022-11-26T21:09:26.352Z,16.87
2022-11-26T21:11:56.272Z,22.27
2022-11-26T21:14:25.818Z,21.33
2022-11-26T21:16:55.592Z,23.50
2022-11-26T21:19:25.364Z,21.60
2022-11-26T21:21:55.098Z,18.30
2022-11-26T21:24:25.132Z,26.15
2022-11-26T21:26:54.600Z,20.00
2022-11-26T21:29:24.320Z,23.17
2022-11-26T21:31:54.479Z,26.40
2022-11-26T21:34:24.018Z,16.17
2022-11-26T21:36:53.779Z,28.90
2022-11-26T21:39:23.597Z,19.83
2022-11-26T21:41:53.333Z,20.33
2022-11-26T21:44:22.771Z,23.73
2022-11-26T21:46:52.528Z,15.90
2022-11-26T21:49:22.331Z,20.13
2022-11-26T21:51:51.802Z,21.30
2022-11-26T21:54:21.379Z,20.70
2022-11-26T21:56:51.172Z,15.23
2022-11-26T21:59:21.053Z,20.30
2022-11-26T22:01:51.250Z,20.40
2022-11-26T22:04:21.705Z,18.12
2022-11-26T22:06:51.707Z,21.52
2022-11-26T22:09:21.647Z,11.70
2022-11-26T22:11:51.153Z,21.40
2022-11-26T22:14:20.573Z,19.90
2022-11-26T22:16:53.978Z,18.10
2022-11-26T22:19:23.786Z,20.27
2022-11-26T22:21:53.602Z,22.03
2022-11-26T22:24:23.148Z,19.13
2022-11-26T22:26:53.941Z,20.88
2022-11-26T22:29:23.903Z,17.17
2022-11-26T22:31:53.694Z,20.90
2022-11-26T22:34:24.576Z,26.03
2022-11-26T22:36:54.392Z,19.57
2022-11-26T22:39:24.125Z,21.00
2022-11-26T22:41:53.854Z,20.87
2022-11-26T22:44:23.383Z,21.10
2022-11-26T22:46:53.102Z,26.30
2022-11-26T22:49:22.838Z,29.53
2022-11-26T22:51:52.582Z,20.70
2022-11-26T22:54:23.410Z,20.88
2022-11-26T22:56:53.085Z,20.47
2022-11-26T22:59:22.850Z,18.40
2022-11-26T23:01:55.886Z,15.73
2022-11-26T23:04:25.540Z,25.52
2022-11-26T23:06:55.269Z,21.20
2022-11-26T23:09:25.066Z,21.23
2022-11-26T23:11:54.557Z,20.20
2022-11-26T23:14:24.007Z,18.70
2022-11-26T23:16:53.766Z,27.37
2022-11-26T23:19:24.076Z,20.45
2022-11-26T23:21:53.853Z,18.43
2022-11-26T23:24:23.280Z,19.93
2022-11-26T23:26:53.022Z,21.07
2022-11-26T23:29:23.016Z,24.97
2022-11-26T23:31:52.951Z,22.37
2022-11-26T23:34:22.355Z,15.20
2022-11-26T23:36:52.079Z,19.30
2022-11-26T23:39:21.831Z,24.20
2022-11-26T23:41:51.289Z,26.50
2022-11-26T23:44:21.075Z,28.65
2022-11-26T23:46:50.853Z,20.07
2022-11-26T23:49:22.815Z,24.23
2022-11-26T23:51:52.607Z,27.03
2022-11-26T23:54:22.453Z,15.88
2022-11-26T23:56:52.523Z,25.52
2022-11-26T23:59:22.261Z,17.70
